createdAt,value
2022-12-01T00:01:14.029Z,27.20
2022-12-01T00:03:41.336Z,27.02
2022-12-01T00:06:15.853Z,27.98
2022-12-01T00:09:02.846Z,28.60
2022-12-01T00:11:30.131Z,29.50
2022-12-01T00:13:57.017Z,29.15
2022-12-01T00:16:23.913Z,27.55
2022-12-01T00:18:52.536Z,28.30
2022-12-01T00:21:21.775Z,29.40
2022-12-01T00:23:51.642Z,28.77
2022-12-01T00:26:19.667Z,28.50
2022-12-01T00:28:57.332Z,29.50
2022-12-01T00:31:24.674Z,27.20
2022-12-01T00:33:51.910Z,26.58
2022-12-01T00:36:18.796Z,28.92
2022-12-01T00:38:46.538Z,28.17
2022-12-01T00:41:13.660Z,27.73
2022-12-01T00:43:40.984Z,27.02
2022-12-01T00:46:08.044Z,28.45
2022-12-01T00:48:34.985Z,28.30
2022-12-01T00:51:04.257Z,28.33
2022-12-01T00:53:31.177Z,27.67
2022-12-01T00:55:58.008Z,28.65
2022-12-01T00:58:25.422Z,27.83
2022-12-01T01:01:00.435Z,27.23
2022-12-01T01:03:28.778Z,27.30
2022-12-01T01:05:55.655Z,28.13
2022-12-01T01:08:22.646Z,26.90
2022-12-01T01:10:49.805Z,27.00
2022-12-01T01:13:17.026Z,27.00
2022-12-01T01:15:44.053Z,26.17
2022-12-01T01:18:11.888Z,26.98
2022-12-01T01:20:38.751Z,27.98
2022-12-01T01:23:05.588Z,25.98
2022-12-01T01:25:33.467Z,26.60
2022-12-01T01:28:00.491Z,27.23
2022-12-01T01:30:27.410Z,27.23
2022-12-01T01:32:54.366Z,27.17
2022-12-01T01:35:22.691Z,25.33
2022-12-01T01:37:50.916Z,26.33
2022-12-01T01:40:18.235Z,25.23
2022-12-01T01:42:45.116Z,26.50
2022-12-01T01:45:32.297Z,23.23
2022-12-01T01:48:00.388Z,25.02
2022-12-01T01:50:28.919Z,26.15
2022-12-01T01:53:00.805Z,25.77
2022-12-01T01:55:30.097Z,26.88
2022-12-01T01:57:57.457Z,27.05
2022-12-01T02:00:24.525Z,26.63
2022-12-01T02:02:54.154Z,26.47
2022-12-01T02:05:23.285Z,27.38
2022-12-01T02:07:55.858Z,26.58
2022-12-01T02:10:37.953Z,27.02
2022-12-01T02:13:13.904Z,26.40
2022-12-01T02:16:08.142Z,26.70
2022-12-01T02:18:59.596Z,26.90
2022-12-01T02:22:01.778Z,27.20
2022-12-01T02:24:51.873Z,27.05
2022-12-01T02:27:18.657Z,26.48
2022-12-01T02:30:22.169Z,26.98
2022-12-01T02:33:04.592Z,26.45
2022-12-01T02:35:41.100Z,26.10
2022-12-01T02:38:26.753Z,24.40
2022-12-01T02:41:04.623Z,25.60
2022-12-01T02:44:08.728Z,26.37
2022-12-01T02:46:55.590Z,26.02
2022-12-01T02:49:35.428Z,22.90
2022-12-01T02:52:05.774Z,25.67
2022-12-01T02:54:33.747Z,26.70
2022-12-01T02:57:00.594Z,26.00
2022-12-01T02:59:27.503Z,26.17
2022-12-01T03:02:06.231Z,26.17
2022-12-01T03:05:03.280Z,26.30
2022-12-01T03:07:51.389Z,26.42
2022-12-01T03:10:24.080Z,21.27
2022-12-01T03:12:58.321Z,25.42
2022-12-01T03:15:36.394Z,26.33
2022-12-01T03:18:26.045Z,26.10
2022-12-01T03:21:08.165Z,25.92
2022-12-01T03:23:41.465Z,26.58
2022-12-01T03:26:12.369Z,27.00
2022-12-01T03:29:12.867Z,26.33
2022-12-01T03:31:54.536Z,24.13
2022-12-01T03:34:46.512Z,26.15
2022-12-01T03:37:21.771Z,26.52
2022-12-01T03:39:55.927Z,26.42
2022-12-01T03:42:34.360Z,25.73
2022-12-01T03:45:08.053Z,26.98
2022-12-01T03:47:40.363Z,25.73
2022-12-01T03:50:13.224Z,24.80
2022-12-01T03:53:07.108Z,25.17
2022-12-01T03:55:40.894Z,25.95
2022-12-01T03:58:10.749Z,24.75
2022-12-01T04:00:37.966Z,25.65
2022-12-01T04:03:05.296Z,25.83
2022-12-01T04:05:34.566Z,26.30
2022-12-01T04:08:02.138Z,26.13
2022-12-01T04:10:29.281Z,25.70
2022-12-01T04:12:59.574Z,26.92
2022-12-01T04:15:27.655Z,26.65
2022-12-01T04:17:54.751Z,26.45
2022-12-01T04:20:21.832Z,25.35
2022-12-01T04:22:49.181Z,26.50
2022-12-01T04:25:16.210Z,26.40
2022-12-01T04:27:43.131Z,26.77
2022-12-01T04:30:11.088Z,26.17
2022-12-01T04:32:42.773Z,25.80
2022-12-01T04:35:11.538Z,26.17
2022-12-01T04:37:39.566Z,26.65
2022-12-01T04:40:07.580Z,26.45
2022-12-01T04:42:34.468Z,28.05
2022-12-01T04:45:01.360Z,28.20
2022-12-01T04:47:28.243Z,24.90
2022-12-01T04:49:55.084Z,26.90
2022-12-01T04:52:21.911Z,26.67
2022-12-01T04:54:48.742Z,27.65
2022-12-01T04:57:15.588Z,28.42
2022-12-01T04:59:42.442Z,27.70
2022-12-01T05:02:09.312Z,27.58
2022-12-01T05:04:38.781Z,27.55
2022-12-01T05:07:06.148Z,25.63
2022-12-01T05:09:33.099Z,27.90
2022-12-01T05:11:59.929Z,27.95
2022-12-01T05:14:26.873Z,27.45
2022-12-01T05:16:55.069Z,26.75
2022-12-01T05:19:40.318Z,25.98
2022-12-01T05:22:07.115Z,27.20
2022-12-01T05:24:33.986Z,27.55
2022-12-01T05:27:00.876Z,27.13
2022-12-01T05:29:27.719Z,28.00
2022-12-01T05:31:54.674Z,27.23
2022-12-01T05:34:21.655Z,26.80
2022-12-01T05:36:48.502Z,27.25
2022-12-01T05:39:15.523Z,26.75
2022-12-01T05:41:42.371Z,26.80
2022-12-01T05:44:09.218Z,26.77
2022-12-01T05:46:36.095Z,25.65
2022-12-01T05:49:02.937Z,26.25
2022-12-01T05:51:29.743Z,25.98
2022-12-01T05:53:58.682Z,26.83
2022-12-01T05:56:25.638Z,27.48
2022-12-01T05:58:52.485Z,26.85
2022-12-01T06:01:19.397Z,26.95
2022-12-01T06:03:46.273Z,27.73
2022-12-01T06:06:13.251Z,27.80
2022-12-01T06:08:40.155Z,26.35
2022-12-01T06:11:07.034Z,27.15
2022-12-01T06:13:33.973Z,26.52
2022-12-01T06:16:03.198Z,26.40
2022-12-01T06:18:38.041Z,27.40
2022-12-01T06:21:06.279Z,27.20
2022-12-01T06:23:33.695Z,28.05
2022-12-01T06:26:00.572Z,26.55
2022-12-01T06:28:27.512Z,27.00
2022-12-01T06:30:59.305Z,27.17
2022-12-01T06:33:29.697Z,28.50
2022-12-01T06:36:05.780Z,25.73
2022-12-01T06:38:34.867Z,26.05
2022-12-01T06:41:02.017Z,27.45
2022-12-01T06:43:29.043Z,25.13
2022-12-01T06:46:01.170Z,26.85
2022-12-01T06:48:29.587Z,24.65
2022-12-01T06:51:00.297Z,24.90
2022-12-01T06:53:28.561Z,25.80
2022-12-01T06:56:04.279Z,27.05
2022-12-01T06:58:31.869Z,27.17
2022-12-01T07:00:59.292Z,27.77
2022-12-01T07:03:26.776Z,26.45
2022-12-01T07:06:01.526Z,25.37
2022-12-01T07:08:30.219Z,27.58
2022-12-01T07:11:08.714Z,28.98
2022-12-01T07:13:36.197Z,28.55
2022-12-01T07:16:04.137Z,29.25
2022-12-01T07:18:32.237Z,31.85
2022-12-01T07:21:01.057Z,29.75
2022-12-01T07:23:28.265Z,30.45
2022-12-01T07:26:10.529Z,30.90
2022-12-01T07:28:37.537Z,28.67
2022-12-01T07:31:06.547Z,30.23
2022-12-01T07:33:33.722Z,29.60
2022-12-01T07:36:01.159Z,28.43
2022-12-01T07:38:29.774Z,30.30
2022-12-01T07:41:02.402Z,29.95
2022-12-01T07:43:31.405Z,29.77
2022-12-01T07:46:05.480Z,29.13
2022-12-01T07:48:32.889Z,29.35
2022-12-01T07:50:59.858Z,30.13
2022-12-01T07:53:26.863Z,29.97
2022-12-01T07:55:53.793Z,30.80
2022-12-01T07:58:20.656Z,29.25
2022-12-01T08:00:47.562Z,32.25
2022-12-01T08:03:15.001Z,35.22
2022-12-01T08:05:41.994Z,41.55
2022-12-01T08:08:09.013Z,38.60
2022-12-01T08:10:36.463Z,39.88
2022-12-01T08:13:03.963Z,47.30
2022-12-01T08:15:30.929Z,39.28
2022-12-01T08:18:02.627Z,39.75
2022-12-01T08:20:29.541Z,39.97
2022-12-01T08:22:56.418Z,38.25
2022-12-01T08:25:23.294Z,41.83
2022-12-01T08:27:50.183Z,37.38
2022-12-01T08:30:17.223Z,38.03
2022-12-01T08:32:44.383Z,37.45
2022-12-01T08:35:11.222Z,41.08
2022-12-01T08:37:38.085Z,35.60
2022-12-01T08:40:05.714Z,30.92
2022-12-01T08:42:32.628Z,35.05
2022-12-01T08:44:59.625Z,34.13
2022-12-01T08:47:29.028Z,35.75
2022-12-01T08:49:57.041Z,34.53
2022-12-01T08:52:23.876Z,29.98
2022-12-01T08:54:50.701Z,33.47
2022-12-01T08:57:18.067Z,34.67
2022-12-01T08:59:44.927Z,35.25
2022-12-01T09:02:15.922Z,27.90
2022-12-01T09:04:42.889Z,32.33
2022-12-01T09:07:10.752Z,33.33
2022-12-01T09:09:37.855Z,34.30
2022-12-01T09:12:04.952Z,33.20
2022-12-01T09:14:31.873Z,34.00
2022-12-01T09:16:58.728Z,32.40
2022-12-01T09:19:25.605Z,31.48
2022-12-01T09:21:52.936Z,34.90
2022-12-01T09:24:19.978Z,28.13
2022-12-01T09:26:47.211Z,32.95
2022-12-01T09:29:17.349Z,34.95
2022-12-01T09:31:44.485Z,33.72
2022-12-01T09:34:15.791Z,34.28
2022-12-01T09:36:42.825Z,30.97
2022-12-01T09:39:13.424Z,34.17
2022-12-01T09:41:45.126Z,32.88
2022-12-01T09:44:20.679Z,35.70
2022-12-01T09:46:57.514Z,31.95
2022-12-01T09:49:45.309Z,31.42
2022-12-01T09:52:16.466Z,29.50
2022-12-01T09:54:43.455Z,30.58
2022-12-01T09:57:30.123Z,30.90
2022-12-01T09:59:59.022Z,40.80
2022-12-01T10:02:37.467Z,32.88
2022-12-01T10:05:12.072Z,31.43
2022-12-01T10:07:57.281Z,29.23
2022-12-01T10:10:34.823Z,28.25
2022-12-01T10:13:01.925Z,30.90
2022-12-01T10:15:54.300Z,28.40
2022-12-01T10:18:39.352Z,32.00
2022-12-01T10:21:14.671Z,31.57
2022-12-01T10:24:13.242Z,31.25
2022-12-01T10:27:07.805Z,30.98
2022-12-01T10:29:43.812Z,31.15
2022-12-01T10:32:21.574Z,29.63
2022-12-01T10:34:48.821Z,30.20
2022-12-01T10:37:24.747Z,31.60
2022-12-01T10:39:55.082Z,31.63
2022-12-01T10:42:35.108Z,31.23
2022-12-01T10:45:07.553Z,28.83
2022-12-01T10:47:35.873Z,29.83
2022-12-01T10:50:04.623Z,27.83
2022-12-01T10:52:41.188Z,32.10
2022-12-01T10:55:23.154Z,31.40
2022-12-01T10:57:51.099Z,30.80
2022-12-01T11:00:59.561Z,64.40
2022-12-01T11:03:27.263Z,28.20
2022-12-01T11:05:58.100Z,31.38
2022-12-01T11:08:54.311Z,31.23
2022-12-01T11:11:28.980Z,31.00
2022-12-01T11:13:58.946Z,29.23
2022-12-01T11:16:42.398Z,30.58
2022-12-01T11:19:27.803Z,21.10
2022-12-01T11:22:00.196Z,28.97
2022-12-01T11:24:55.496Z,30.00
2022-12-01T11:27:29.304Z,30.13
2022-12-01T11:30:00.089Z,27.23
2022-12-01T11:32:33.373Z,29.20
2022-12-01T11:35:14.844Z,25.60
2022-12-01T11:38:27.234Z,23.40
2022-12-01T11:41:04.356Z,28.27
2022-12-01T11:43:34.899Z,29.70
2022-12-01T11:46:05.663Z,23.77
2022-12-01T11:48:37.350Z,28.63
2022-12-01T11:51:24.342Z,27.40
2022-12-01T11:54:19.310Z,29.00
2022-12-01T11:56:52.810Z,27.70
2022-12-01T11:59:31.507Z,23.80
2022-12-01T12:02:16.986Z,26.90
2022-12-01T12:05:05.423Z,26.75
2022-12-01T12:07:53.788Z,26.17
2022-12-01T12:10:45.296Z,26.15
2022-12-01T12:13:20.849Z,24.30
2022-12-01T12:16:18.957Z,21.80
2022-12-01T12:19:04.627Z,27.35
2022-12-01T12:21:36.451Z,31.08
2022-12-01T12:24:23.619Z,28.02
2022-12-01T12:27:17.923Z,28.75
2022-12-01T12:30:02.071Z,22.27
2022-12-01T12:32:28.832Z,24.38
2022-12-01T12:35:04.557Z,22.95
2022-12-01T12:37:49.733Z,23.92
2022-12-01T12:40:19.717Z,23.92
2022-12-01T12:42:55.687Z,23.63
2022-12-01T12:45:34.120Z,22.08
2022-12-01T12:48:00.898Z,21.83
2022-12-01T12:50:34.572Z,24.88
2022-12-01T12:53:06.653Z,21.92
2022-12-01T12:55:43.870Z,23.75
2022-12-01T12:58:16.757Z,26.02
2022-12-01T13:00:50.431Z,17.38
2022-12-01T13:03:34.061Z,22.25
2022-12-01T13:06:14.838Z,26.48
2022-12-01T13:08:50.742Z,26.30
2022-12-01T13:11:29.029Z,25.02
2022-12-01T13:14:13.209Z,28.92
2022-12-01T13:16:44.121Z,25.13
2022-12-01T13:19:27.237Z,24.57
2022-12-01T13:21:55.762Z,23.65
2022-12-01T13:24:29.694Z,23.10
2022-12-01T13:27:19.877Z,23.38
2022-12-01T13:29:50.678Z,18.67
2022-12-01T13:32:38.544Z,23.98
2022-12-01T13:35:20.754Z,24.10
2022-12-01T13:37:48.345Z,23.67
2022-12-01T13:40:24.927Z,19.90
2022-12-01T13:43:10.249Z,22.37
2022-12-01T13:45:40.015Z,22.90
2022-12-01T13:48:45.766Z,22.80
2022-12-01T13:51:12.661Z,25.85
2022-12-01T13:53:52.655Z,24.45
2022-12-01T13:56:45.801Z,24.50
2022-12-01T13:59:57.753Z,25.45
2022-12-01T14:02:26.926Z,23.70
2022-12-01T14:04:53.963Z,23.60
2022-12-01T14:07:28.399Z,23.48
2022-12-01T14:10:06.285Z,20.48
2022-12-01T14:12:37.799Z,23.05
2022-12-01T14:15:22.755Z,20.52
2022-12-01T14:18:04.810Z,24.33
2022-12-01T14:20:37.313Z,23.77
2022-12-01T14:23:33.215Z,22.80
2022-12-01T14:26:04.243Z,23.70
2022-12-01T14:28:56.057Z,23.80
2022-12-01T14:31:24.874Z,22.88
2022-12-01T14:34:01.959Z,23.42
2022-12-01T14:36:41.951Z,24.10
2022-12-01T14:39:19.885Z,29.30
2022-12-01T14:41:51.624Z,25.20
2022-12-01T14:44:30.853Z,25.52
2022-12-01T14:47:22.687Z,25.02
2022-12-01T14:50:13.790Z,24.37
2022-12-01T14:52:45.133Z,23.93
2022-12-01T14:55:20.627Z,23.85
2022-12-01T14:57:52.632Z,23.30
2022-12-01T15:00:25.100Z,25.08
2022-12-01T15:02:56.099Z,24.00
2022-12-01T15:05:27.306Z,23.83
2022-12-01T15:08:18.637Z,24.65
2022-12-01T15:10:53.151Z,23.42
2022-12-01T15:13:53.924Z,22.90
2022-12-01T15:16:23.262Z,23.52
2022-12-01T15:18:50.611Z,23.58
2022-12-01T15:21:25.050Z,24.13
2022-12-01T15:24:19.679Z,23.67
2022-12-01T15:26:51.701Z,24.65
2022-12-01T15:29:19.311Z,24.70
2022-12-01T15:32:01.986Z,24.42
2022-12-01T15:34:38.137Z,24.33
2022-12-01T15:37:11.558Z,23.08
2022-12-01T15:39:52.534Z,23.52
2022-12-01T15:42:33.421Z,22.85
2022-12-01T15:45:15.614Z,24.02
2022-12-01T15:47:43.543Z,22.77
2022-12-01T15:50:46.211Z,21.90
2022-12-01T15:53:29.569Z,22.38
2022-12-01T15:55:59.286Z,23.08
2022-12-01T15:58:30.315Z,22.80
2022-12-01T16:01:13.222Z,19.80
2022-12-01T16:03:54.137Z,23.35
2022-12-01T16:06:27.931Z,26.65
2022-12-01T16:09:00.090Z,24.25
2022-12-01T16:11:27.583Z,22.98
2022-12-01T16:14:08.066Z,22.20
2022-12-01T16:16:46.928Z,23.40
2022-12-01T16:19:16.901Z,23.50
2022-12-01T16:21:49.654Z,24.30
2022-12-01T16:24:38.493Z,23.67
2022-12-01T16:27:18.490Z,23.75
2022-12-01T16:30:02.773Z,23.17
2022-12-01T16:32:42.477Z,21.60
2022-12-01T16:35:21.373Z,19.37
2022-12-01T16:37:48.422Z,20.27
2022-12-01T16:40:16.804Z,20.55
2022-12-01T16:42:44.028Z,19.15
2022-12-01T16:45:14.737Z,17.83
2022-12-01T16:47:43.109Z,20.55
2022-12-01T16:50:18.066Z,21.15
2022-12-01T16:52:45.910Z,21.15
2022-12-01T16:55:43.905Z,20.90
2022-12-01T16:58:10.883Z,19.48
2022-12-01T17:00:37.801Z,19.98
2022-12-01T17:03:05.811Z,21.83
2022-12-01T17:05:33.455Z,22.48
2022-12-01T17:08:00.568Z,21.50
2022-12-01T17:10:27.462Z,21.47
2022-12-01T17:12:54.346Z,21.17
2022-12-01T17:15:21.219Z,19.67
2022-12-01T17:17:48.188Z,22.13
2022-12-01T17:20:15.436Z,23.73
2022-12-01T17:22:42.578Z,23.40
2022-12-01T17:25:09.868Z,23.50
2022-12-01T17:27:37.718Z,23.27
2022-12-01T17:30:09.078Z,24.92
2022-12-01T17:32:36.275Z,23.63
2022-12-01T17:35:03.472Z,23.75
2022-12-01T17:37:30.388Z,25.25
2022-12-01T17:39:57.366Z,24.50
2022-12-01T17:42:24.381Z,23.92
2022-12-01T17:44:51.482Z,22.83
2022-12-01T17:47:18.601Z,22.67
2022-12-01T17:49:45.487Z,25.80
2022-12-01T17:52:12.522Z,26.42
2022-12-01T17:54:39.423Z,24.70
2022-12-01T17:57:07.519Z,22.95
2022-12-01T17:59:35.548Z,23.73
2022-12-01T18:02:03.731Z,23.52
2022-12-01T18:04:31.843Z,22.58
2022-12-01T18:06:59.535Z,28.33
2022-12-01T18:09:26.867Z,38.17
2022-12-01T18:11:56.239Z,27.58
2022-12-01T18:14:24.304Z,26.25
2022-12-01T18:16:51.862Z,26.80
2022-12-01T18:19:19.508Z,26.60
2022-12-01T18:21:46.440Z,24.67
2022-12-01T18:24:13.566Z,24.63
2022-12-01T18:26:41.354Z,24.83
2022-12-01T18:29:14.445Z,24.98
2022-12-01T18:31:41.879Z,24.58
2022-12-01T18:34:11.158Z,24.55
2022-12-01T18:36:39.962Z,24.30
2022-12-01T18:39:09.026Z,24.25
2022-12-01T18:41:36.803Z,25.00
2022-12-01T18:44:04.442Z,24.55
2022-12-01T18:46:31.687Z,25.08
2022-12-01T18:49:02.962Z,23.45
2022-12-01T18:51:32.229Z,22.83
2022-12-01T18:54:03.583Z,23.57
2022-12-01T18:56:31.099Z,23.17
2022-12-01T18:58:59.858Z,23.13
2022-12-01T19:01:32.245Z,24.20
2022-12-01T19:04:00.481Z,24.67
2022-12-01T19:06:28.871Z,25.02
2022-12-01T19:08:59.996Z,24.50
2022-12-01T19:11:27.933Z,25.38
2022-12-01T19:13:56.819Z,25.20
2022-12-01T19:16:24.393Z,34.40
2022-12-01T19:18:52.851Z,38.33
2022-12-01T19:21:20.669Z,29.97
2022-12-01T19:23:48.458Z,25.63
2022-12-01T19:26:21.797Z,25.17
2022-12-01T19:28:49.307Z,24.75
2022-12-01T19:31:18.734Z,25.00
2022-12-01T19:33:46.580Z,26.23
2022-12-01T19:36:25.035Z,24.98
2022-12-01T19:38:52.976Z,27.08
2022-12-01T19:41:20.835Z,30.13
2022-12-01T19:43:48.141Z,35.30
2022-12-01T19:46:17.835Z,28.83
2022-12-01T19:48:45.118Z,27.80
2022-12-01T19:51:20.209Z,21.63
2022-12-01T19:53:47.926Z,22.25
2022-12-01T19:56:15.051Z,22.33
2022-12-01T19:58:41.961Z,21.50
2022-12-01T20:01:11.926Z,21.58
2022-12-01T20:03:40.661Z,20.75
2022-12-01T20:06:14.444Z,20.80
2022-12-01T20:08:41.877Z,23.17
2022-12-01T20:11:09.193Z,25.63
2022-12-01T20:13:39.980Z,25.25
2022-12-01T20:16:08.605Z,25.42
2022-12-01T20:18:36.319Z,26.75
2022-12-01T20:21:04.078Z,25.27
2022-12-01T20:23:31.001Z,24.08
2022-12-01T20:26:02.856Z,27.73
2022-12-01T20:28:30.583Z,26.85
2022-12-01T20:30:58.353Z,25.92
2022-12-01T20:33:26.166Z,25.95
2022-12-01T20:35:53.068Z,24.38
2022-12-01T20:38:25.828Z,25.83
2022-12-01T20:40:54.446Z,25.92
2022-12-01T20:43:21.690Z,26.15
2022-12-01T20:45:51.496Z,25.88
2022-12-01T20:48:18.561Z,25.20
2022-12-01T20:50:45.562Z,24.33
2022-12-01T20:53:12.664Z,25.45
2022-12-01T20:55:39.870Z,26.70
2022-12-01T20:58:10.499Z,26.95
2022-12-01T21:00:39.993Z,28.77
2022-12-01T21:03:07.173Z,26.88
2022-12-01T21:05:34.051Z,29.02
2022-12-01T21:08:01.944Z,25.85
2022-12-01T21:10:29.192Z,27.90
2022-12-01T21:13:21.640Z,27.50
2022-12-01T21:16:00.224Z,26.83
2022-12-01T21:18:38.319Z,25.58
2022-12-01T21:21:21.191Z,27.88
2022-12-01T21:23:54.883Z,28.25
2022-12-01T21:26:21.789Z,27.38
2022-12-01T21:28:48.672Z,27.43
2022-12-01T21:31:16.073Z,28.50
2022-12-01T21:33:43.397Z,27.15
2022-12-01T21:36:22.227Z,25.23
2022-12-01T21:38:53.374Z,28.10
2022-12-01T21:41:29.924Z,27.07
2022-12-01T21:44:02.663Z,27.63
2022-12-01T21:46:30.035Z,27.37
2022-12-01T21:48:57.101Z,27.52
2022-12-01T21:51:25.668Z,28.05
2022-12-01T21:53:55.965Z,27.17
2022-12-01T21:56:26.919Z,27.98
2022-12-01T21:58:58.957Z,26.90
2022-12-01T22:01:34.195Z,27.55
2022-12-01T22:04:06.058Z,27.65
2022-12-01T22:06:39.571Z,27.38
2022-12-01T22:09:31.710Z,27.85
2022-12-01T22:12:10.524Z,26.70
2022-12-01T22:14:37.443Z,27.95
2022-12-01T22:17:07.547Z,27.92
2022-12-01T22:19:39.655Z,28.10
2022-12-01T22:22:09.461Z,29.23
2022-12-01T22:24:40.981Z,29.15
2022-12-01T22:27:29.814Z,26.67
2022-12-01T22:30:19.535Z,29.70
2022-12-01T22:33:03.832Z,29.45
2022-12-01T22:35:43.259Z,29.67
2022-12-01T22:38:39.850Z,29.17
2022-12-01T22:41:12.110Z,28.92
2022-12-01T22:43:48.289Z,28.45
2022-12-01T22:46:25.817Z,28.98
2022-12-01T22:49:20.188Z,28.17
2022-12-01T22:51:50.031Z,29.27
2022-12-01T22:54:16.840Z,29.05
2022-12-01T22:56:48.518Z,28.58
2022-12-01T22:59:15.364Z,28.65
2022-12-01T23:02:01.146Z,27.15
2022-12-01T23:04:38.493Z,29.60
2022-12-01T23:07:23.915Z,28.58
2022-12-01T23:09:50.867Z,28.95
2022-12-01T23:12:27.215Z,29.58
2022-12-01T23:15:16.022Z,29.10
2022-12-01T23:17:42.903Z,31.10
2022-12-01T23:20:28.670Z,29.15
2022-12-01T23:22:57.239Z,26.60
2022-12-01T23:25:25.767Z,30.77
2022-12-01T23:27:54.641Z,30.42
2022-12-01T23:30:22.510Z,26.67
2022-12-01T23:33:19.289Z,30.83
2022-12-01T23:35:55.928Z,31.20
2022-12-01T23:38:28.495Z,29.90
2022-12-01T23:40:59.346Z,30.83
2022-12-01T23:43:33.162Z,30.48
2022-12-01T23:46:05.940Z,30.52
2022-12-01T23:48:37.842Z,30.63
2022-12-01T23:51:10.940Z,29.20
2022-12-01T23:53:40.292Z,27.10
2022-12-01T23:56:12.483Z,29.65
2022-12-01T23:58:39.347Z,32.10
